createdAt,value
2023-03-03T00:02:54.545Z,2.9
2023-03-03T00:08:47.606Z,2.9
2023-03-03T00:14:40.428Z,2.9
2023-03-03T00:20:34.008Z,3
2023-03-03T00:26:26.793Z,3
2023-03-03T00:31:48.419Z,3.1
2023-03-03T00:37:25.469Z,3.1
2023-03-03T00:43:18.131Z,3.1
2023-03-03T00:49:11.332Z,3.1
2023-03-03T00:55:05.216Z,3.1
2023-03-03T01:00:27.505Z,3.1
2023-03-03T01:06:20.823Z,3.1
2023-03-03T01:11:57.959Z,3.1
2023-03-03T01:17:36.361Z,3.1
2023-03-03T01:23:14.004Z,3.1
2023-03-03T01:28:35.362Z,3.1
2023-03-03T01:33:57.650Z,3.1
2023-03-03T01:39:34.337Z,3.1
2023-03-03T01:45:11.458Z,3.1
2023-03-03T01:50:33.053Z,3.1
2023-03-03T01:55:54.349Z,3
2023-03-03T02:01:15.174Z,3
2023-03-03T02:06:37.839Z,3.1
2023-03-03T02:11:59.977Z,3
2023-03-03T02:17:21.182Z,2.9
2023-03-03T02:22:27.621Z,2.9
2023-03-03T02:27:33.100Z,2.9
2023-03-03T02:32:54.615Z,2.9
2023-03-03T02:38:32.249Z,2.9
2023-03-03T02:44:08.963Z,2.9
2023-03-03T02:50:02.133Z,2.8
2023-03-03T02:55:39.404Z,2.8
2023-03-03T03:01:16.683Z,2.8
2023-03-03T03:06:53.265Z,2.8
2023-03-03T03:12:15.038Z,2.8
2023-03-03T03:17:51.786Z,2.8
2023-03-03T03:23:29.186Z,2.9
2023-03-03T03:29:07.270Z,2.9
2023-03-03T03:34:59.865Z,2.8
2023-03-03T03:40:36.130Z,2.8
2023-03-03T03:46:13.480Z,2.8
2023-03-03T03:52:05.502Z,2.8
2023-03-03T03:57:43.353Z,2.8
2023-03-03T04:03:21.473Z,2.8
2023-03-03T04:09:14.044Z,2.8
2023-03-03T04:15:06.395Z,2.7
2023-03-03T04:20:47.668Z,2.7
2023-03-03T04:26:40.627Z,2.7
2023-03-03T04:32:20.821Z,2.6
2023-03-03T04:38:10.890Z,2.6
2023-03-03T04:44:05.772Z,2.6
2023-03-03T04:50:01.234Z,2.6
2023-03-03T04:55:53.930Z,2.6
2023-03-03T05:01:31.042Z,2.6
2023-03-03T05:07:09.228Z,2.6
2023-03-03T05:13:03.047Z,2.6
2023-03-03T05:18:55.947Z,2.6
2023-03-03T05:24:48.992Z,2.6
2023-03-03T05:30:41.958Z,2.7
2023-03-03T05:36:35.888Z,2.8
2023-03-03T05:42:13.783Z,2.9
2023-03-03T05:48:07.218Z,3.1
2023-03-03T05:53:59.769Z,3.2
2023-03-03T05:59:52.176Z,3.4
2023-03-03T06:05:46.539Z,3.7
2023-03-03T06:11:24.229Z,4.1
2023-03-03T06:17:18.974Z,4.4
2023-03-03T06:23:13.174Z,4.9
2023-03-03T06:29:05.937Z,5.4
2023-03-03T06:34:43.574Z,5.6
2023-03-03T06:40:37.477Z,6
2023-03-03T06:46:31.013Z,6.3
2023-03-03T06:52:07.891Z,6.6
2023-03-03T06:58:01.155Z,6.9
2023-03-03T07:03:39.763Z,7
2023-03-03T07:09:32.253Z,7.1
2023-03-03T07:15:28.144Z,7.4
2023-03-03T07:21:22.144Z,7.6
2023-03-03T07:27:15.345Z,7.9
2023-03-03T07:32:53.075Z,8.1
2023-03-03T07:38:47.172Z,8.3
2023-03-03T07:44:42.866Z,8.6
2023-03-03T07:50:36.361Z,8.9
2023-03-03T07:56:29.401Z,9.2
2023-03-03T08:02:21.677Z,9.4
2023-03-03T08:08:01.236Z,9.7
2023-03-03T08:13:54.459Z,9.9
2023-03-03T08:19:47.329Z,10
2023-03-03T08:25:40.551Z,10.1
2023-03-03T08:31:58.313Z,10.2
2023-03-03T08:37:52.709Z,10.4
2023-03-03T08:43:46.386Z,10.6
2023-03-03T08:49:39.860Z,10.8
2023-03-03T08:55:33.271Z,11
2023-03-03T09:01:41.272Z,11.6
2023-03-03T09:07:34.956Z,12.3
2023-03-03T09:13:27.143Z,12.9
2023-03-03T09:19:20.777Z,13.8
2023-03-03T09:25:14.281Z,14.3
2023-03-03T09:31:07.592Z,14.8
2023-03-03T09:37:00.993Z,15.2
2023-03-03T09:42:53.703Z,15.4
2023-03-03T09:48:34.450Z,15.4
2023-03-03T09:54:33.034Z,15.6
2023-03-03T10:00:44.510Z,15.8
2023-03-03T10:06:42.457Z,16.2
2023-03-03T10:12:36.434Z,16.6
2023-03-03T10:18:32.876Z,16.9
2023-03-03T10:24:35.110Z,17.4
2023-03-03T10:31:05.013Z,17.6
2023-03-03T10:37:20.655Z,17.6
2023-03-03T10:43:26.024Z,17.7
2023-03-03T10:49:24.601Z,17.9
2023-03-03T10:55:17.761Z,17.9
2023-03-03T11:01:24.812Z,17.7
2023-03-03T11:07:22.507Z,17.5
2023-03-03T11:13:01.222Z,17.3
2023-03-03T11:18:55.188Z,16.9
2023-03-03T11:24:48.225Z,16.8
2023-03-03T11:30:41.612Z,16.9
2023-03-03T11:36:36.203Z,17.4
2023-03-03T11:42:14.215Z,17.6
2023-03-03T11:48:23.314Z,17.6
2023-03-03T11:54:16.684Z,17.9
2023-03-03T12:00:11.813Z,18
2023-03-03T12:06:07.556Z,17.8
2023-03-03T12:12:09.230Z,17.4
2023-03-03T12:23:55.904Z,16.5
2023-03-03T12:29:49.385Z,16.2
2023-03-03T12:35:44.220Z,15.8
2023-03-03T12:41:51.434Z,15.4
2023-03-03T12:47:44.425Z,15
2023-03-03T12:53:49.641Z,14.6
2023-03-03T12:59:42.687Z,14.3
2023-03-03T13:05:41.293Z,14
2023-03-03T13:11:34.779Z,13.7
2023-03-03T13:17:53.469Z,13.3
2023-03-03T13:23:46.501Z,13.1
2023-03-03T13:29:40.270Z,13.7
2023-03-03T13:41:12.842Z,19.1
2023-03-03T13:47:06.048Z,19.5
2023-03-03T13:52:58.654Z,19.4
2023-03-03T13:58:51.661Z,19.6
2023-03-03T14:04:46.366Z,19.4
2023-03-03T14:10:39.377Z,18.9
2023-03-03T14:16:33.120Z,18.4
2023-03-03T14:22:26.987Z,17.9
2023-03-03T14:28:19.627Z,17.3
2023-03-03T14:34:29.146Z,16.6
2023-03-03T14:40:22.830Z,16.1
2023-03-03T14:46:20.248Z,15.5
2023-03-03T14:52:14.192Z,14.8
2023-03-03T14:58:08.644Z,14.3
2023-03-03T15:03:48.559Z,13.9
2023-03-03T15:09:43.574Z,13.4
2023-03-03T15:15:21.340Z,13.1
2023-03-03T15:20:58.650Z,12.8
2023-03-03T15:26:50.055Z,12.4
2023-03-03T15:32:30.681Z,11.9
2023-03-03T15:38:08.245Z,11.6
2023-03-03T15:43:45.283Z,11.3
2023-03-03T15:49:24.163Z,10.8
2023-03-03T15:55:11.230Z,10.4
2023-03-03T16:01:03.940Z,10
2023-03-03T16:06:41.786Z,9.6
2023-03-03T16:12:35.223Z,9.2
2023-03-03T16:18:28.792Z,8.8
2023-03-03T16:24:23.157Z,8.5
2023-03-03T16:30:02.165Z,8.2
2023-03-03T16:35:56.392Z,7.9
2023-03-03T16:41:49.677Z,7.5
2023-03-03T16:47:42.864Z,7.3
2023-03-03T16:53:18.852Z,7
2023-03-03T16:58:56.006Z,6.8
2023-03-03T17:04:49.354Z,6.6
2023-03-03T17:10:54.454Z,6.4
2023-03-03T17:16:16.624Z,6.3
2023-03-03T17:22:22.700Z,6.1
2023-03-03T17:28:16.384Z,5.9
2023-03-03T17:34:10.209Z,5.8
2023-03-03T17:39:48.703Z,5.7
2023-03-03T17:45:43.864Z,5.6
2023-03-03T17:51:36.403Z,5.5
2023-03-03T17:57:29.629Z,5.4
2023-03-03T18:03:22.470Z,5.4
2023-03-03T18:09:30.129Z,5.3
2023-03-03T18:15:07.326Z,5.3
2023-03-03T18:20:59.890Z,5.2
2023-03-03T18:26:56.370Z,5.1
2023-03-03T18:32:49.389Z,5.1
2023-03-03T18:38:42.008Z,5.1
2023-03-03T18:44:34.448Z,5.1
2023-03-03T18:50:27.853Z,5
2023-03-03T18:56:19.923Z,5
2023-03-03T19:01:41.167Z,5
2023-03-03T19:07:35.346Z,5
2023-03-03T19:13:12.613Z,5
2023-03-03T19:18:49.721Z,5
2023-03-03T19:24:45.431Z,4.9
2023-03-03T19:30:37.967Z,4.9
2023-03-03T19:36:32.032Z,4.9
2023-03-03T19:42:28.717Z,4.9
2023-03-03T19:48:21.905Z,4.9
2023-03-03T19:54:14.189Z,4.9
2023-03-03T20:00:06.964Z,4.9
2023-03-03T20:05:59.511Z,4.9
2023-03-03T20:11:53.582Z,4.9
2023-03-03T20:17:48.546Z,4.9
2023-03-03T20:23:39.643Z,4.9
2023-03-03T20:29:33.332Z,4.9
2023-03-03T20:35:26.666Z,4.9
2023-03-03T20:41:03.462Z,4.9
2023-03-03T20:46:56.757Z,4.9
2023-03-03T20:52:50.582Z,4.9
2023-03-03T20:58:41.908Z,4.8
2023-03-03T21:04:33.831Z,4.8
2023-03-03T21:09:55.504Z,4.8
2023-03-03T21:15:48.442Z,4.8
2023-03-03T21:21:44.008Z,4.8
2023-03-03T21:27:23.938Z,4.8
2023-03-03T21:33:18.667Z,4.8
2023-03-03T21:39:13.485Z,4.8
2023-03-03T21:45:07.008Z,4.8
2023-03-03T21:50:44.293Z,4.8
2023-03-03T21:56:21.767Z,4.8
2023-03-03T22:02:15.755Z,4.8
2023-03-03T22:08:09.769Z,4.8
2023-03-03T22:14:02.408Z,4.8
2023-03-03T22:19:55.309Z,4.8
2023-03-03T22:25:48.048Z,4.8
2023-03-03T22:31:41.607Z,4.8
2023-03-03T22:37:35.668Z,4.8
2023-03-03T22:43:28.279Z,4.8
2023-03-03T22:49:20.175Z,4.8
2023-03-03T22:55:12.382Z,4.8
2023-03-03T23:01:04.896Z,4.8
2023-03-03T23:06:58.216Z,4.7
2023-03-03T23:12:36.157Z,4.6
2023-03-03T23:18:28.309Z,4.6
2023-03-03T23:24:05.837Z,4.5
2023-03-03T23:29:57.578Z,4.5
2023-03-03T23:35:34.379Z,4.4
2023-03-03T23:41:26.189Z,4.4
2023-03-03T23:47:19.579Z,4.4
2023-03-03T23:53:12.362Z,4.4
2023-03-03T23:59:04.981Z,4.4
